Everton, Missouri
Current Conditions -  °F | °C
As of 4:52 PM on Thursday 18 Dec 2014 (Local Time) from KSGF Reporting Station
Overcast Overcast  
Wind Chill: 38°   Ceiling: 700
Heat Index: 38°   Visibility: 9mi
Dew Point: 36°   Wind: 3mph
Humidity: 93%   Direction: 10°N
Pressure: 30.15"   Gusts: NA
Location:  37.34°N, 93.7°W
Report Text: KSGF 182252Z 01003KT 9SM OVC007 03/02 A3015 RMK AO2 CIG 005V010 SLP218 T00330022
Loading
Personal Weather Stations






























Interactive Weather Map New forecast layout! Learn more

10-Day Weather Forecast

Advertisements
Track Severe Weather on mobile